createdAt,value
2022-09-16T00:00:51.717Z,86.77
2022-09-16T00:03:18.822Z,87.03
2022-09-16T00:05:47.765Z,87.85
2022-09-16T00:08:15.585Z,87.58
2022-09-16T00:10:43.616Z,87.56
2022-09-16T00:13:11.431Z,87.54
2022-09-16T00:15:41.536Z,86.96
2022-09-16T00:18:07.896Z,85.93
2022-09-16T00:20:34.406Z,85.89
2022-09-16T00:23:00.857Z,86.68
2022-09-16T00:25:27.397Z,86.39
2022-09-16T00:27:53.890Z,85.94
2022-09-16T00:30:21.058Z,86.18
2022-09-16T00:32:47.424Z,86.83
2022-09-16T00:35:13.908Z,87.27
2022-09-16T00:37:40.335Z,87.65
2022-09-16T00:40:07.090Z,87.82
2022-09-16T00:42:38.939Z,87.52
2022-09-16T00:45:16.239Z,87.86
2022-09-16T00:47:54.004Z,87.25
2022-09-16T00:50:28.375Z,88.72
2022-09-16T00:52:56.550Z,90.58
2022-09-16T00:55:28.189Z,91.35
2022-09-16T00:57:59.604Z,91.53
2022-09-16T01:00:27.163Z,92.39
2022-09-16T01:02:53.664Z,92.16
2022-09-16T01:05:23.469Z,91.72
2022-09-16T01:07:51.919Z,90.75
2022-09-16T01:10:22.501Z,93.67
2022-09-16T01:12:54.921Z,93.94
2022-09-16T01:15:31.454Z,92.31
2022-09-16T01:18:13.214Z,91.97
2022-09-16T01:20:49.707Z,90.18
2022-09-16T01:23:51.557Z,89.43
2022-09-16T01:26:53.011Z,89.11
2022-09-16T01:29:56.841Z,89.25
2022-09-16T01:32:34.727Z,90.71
2022-09-16T01:35:10.274Z,91.38
2022-09-16T01:38:02.438Z,88.86
2022-09-16T01:40:41.529Z,88.51
2022-09-16T01:43:40.218Z,90.11
2022-09-16T01:46:16.707Z,89.85
2022-09-16T01:48:57.037Z,90.01
2022-09-16T01:51:32.038Z,90.04
2022-09-16T01:54:11.881Z,90.82
2022-09-16T01:56:53.967Z,91.14
2022-09-16T01:59:42.468Z,92.80
2022-09-16T02:02:19.655Z,93.40
2022-09-16T02:04:51.414Z,93.54
2022-09-16T02:07:21.600Z,94.26
2022-09-16T02:10:08.713Z,93.35
2022-09-16T02:12:39.277Z,93.12
2022-09-16T02:15:11.348Z,92.30
2022-09-16T02:17:47.555Z,93.17
2022-09-16T02:20:19.739Z,93.05
2022-09-16T02:22:54.817Z,94.15
2022-09-16T02:25:22.986Z,93.93
2022-09-16T02:27:52.093Z,93.71
2022-09-16T02:30:22.023Z,92.93
2022-09-16T02:32:58.585Z,93.41
2022-09-16T02:35:27.026Z,92.90
2022-09-16T02:37:59.770Z,92.86
2022-09-16T02:40:35.913Z,93.27
2022-09-16T02:43:03.068Z,93.43
2022-09-16T02:45:48.551Z,94.47
2022-09-16T02:48:31.657Z,93.27
2022-09-16T02:51:10.075Z,93.74
2022-09-16T02:53:58.333Z,94.97
2022-09-16T02:56:31.245Z,94.94
2022-09-16T02:58:58.151Z,95.37
2022-09-16T03:01:25.986Z,95.19
2022-09-16T03:03:55.851Z,95.71
2022-09-16T03:06:25.535Z,95.28
2022-09-16T03:08:56.196Z,95.28
2022-09-16T03:11:40.114Z,95.77
2022-09-16T03:14:18.741Z,95.78
2022-09-16T03:16:55.135Z,95.28
2022-09-16T03:19:32.973Z,96.02
2022-09-16T03:22:05.371Z,95.47
2022-09-16T03:24:54.570Z,94.97
2022-09-16T03:27:31.802Z,94.52
2022-09-16T03:30:08.829Z,93.82
2022-09-16T03:32:41.303Z,93.68
2022-09-16T03:35:25.767Z,95.17
2022-09-16T03:37:58.302Z,96.13
2022-09-16T03:40:26.743Z,96.33
2022-09-16T03:42:53.203Z,97.20
2022-09-16T03:45:22.705Z,97.53
2022-09-16T03:47:51.762Z,96.56
2022-09-16T03:50:20.088Z,97.20
2022-09-16T03:52:47.452Z,98.88
2022-09-16T03:55:13.923Z,98.19
2022-09-16T03:57:40.311Z,98.60
2022-09-16T04:00:08.467Z,98.98
2022-09-16T04:02:40.549Z,98.59
2022-09-16T04:05:08.811Z,98.21
2022-09-16T04:07:35.925Z,97.64
2022-09-16T04:10:03.154Z,96.56
2022-09-16T04:12:29.700Z,96.21
2022-09-16T04:14:56.251Z,97.04
2022-09-16T04:17:23.221Z,97.36
2022-09-16T04:19:51.147Z,98.48
2022-09-16T04:22:17.509Z,98.32
2022-09-16T04:24:43.927Z,99.04
2022-09-16T04:27:10.299Z,98.13
2022-09-16T04:29:36.892Z,98.62
2022-09-16T04:32:03.493Z,97.92
2022-09-16T04:34:30.137Z,98.22
2022-09-16T04:36:56.531Z,98.89
2022-09-16T04:39:23.045Z,100.00
2022-09-16T04:41:49.411Z,100.00
2022-09-16T04:44:16.022Z,100.00
2022-09-16T04:46:42.474Z,99.85
2022-09-16T04:49:09.072Z,99.41
2022-09-16T04:51:35.441Z,98.55
2022-09-16T04:54:01.924Z,98.25
2022-09-16T04:56:31.566Z,98.32
2022-09-16T04:59:03.532Z,98.85
2022-09-16T05:01:32.514Z,97.96
2022-09-16T05:04:02.371Z,97.50
2022-09-16T05:06:35.334Z,97.81
2022-09-16T05:09:02.756Z,96.71
2022-09-16T05:11:31.986Z,96.42
2022-09-16T05:13:59.524Z,96.94
2022-09-16T05:16:25.928Z,95.50
2022-09-16T05:18:55.585Z,94.60
2022-09-16T05:21:24.339Z,94.31
2022-09-16T05:23:52.513Z,94.82
2022-09-16T05:26:24.882Z,94.98
2022-09-16T05:28:52.472Z,95.72
2022-09-16T05:31:24.414Z,96.60
2022-09-16T05:34:02.143Z,97.53
2022-09-16T05:36:31.163Z,96.42
2022-09-16T05:39:22.265Z,97.53
2022-09-16T05:41:45.277Z,97.38
2022-09-16T05:44:12.149Z,97.07
2022-09-16T05:46:40.633Z,96.93
2022-09-16T05:49:07.969Z,97.89
2022-09-16T05:51:34.512Z,98.00
2022-09-16T05:54:00.908Z,97.64
2022-09-16T05:56:30.033Z,97.45
2022-09-16T05:58:59.535Z,96.74
2022-09-16T06:01:34.636Z,96.33
2022-09-16T06:04:03.172Z,95.32
2022-09-16T06:06:34.028Z,96.12
2022-09-16T06:09:08.036Z,95.75
2022-09-16T06:11:38.334Z,95.90
2022-09-16T06:14:06.021Z,96.59
2022-09-16T06:16:33.067Z,96.85
2022-09-16T06:19:01.705Z,96.61
2022-09-16T06:21:29.106Z,96.01
2022-09-16T06:23:56.671Z,94.28
2022-09-16T06:26:26.074Z,94.52
2022-09-16T06:28:53.548Z,94.26
2022-09-16T06:31:23.435Z,94.49
2022-09-16T06:33:50.880Z,94.00
2022-09-16T06:36:23.590Z,95.20
2022-09-16T06:38:51.229Z,95.18
2022-09-16T06:41:19.740Z,95.23
2022-09-16T06:43:47.059Z,94.46
2022-09-16T06:46:19.866Z,91.95
2022-09-16T06:48:50.111Z,90.87
2022-09-16T06:51:22.832Z,90.92
2022-09-16T06:53:50.206Z,90.72
2022-09-16T06:56:20.498Z,91.62
2022-09-16T06:58:49.207Z,90.77
2022-09-16T07:01:28.086Z,91.05
2022-09-16T07:03:56.638Z,90.23
2022-09-16T07:06:38.149Z,90.74
2022-09-16T07:09:11.279Z,91.34
2022-09-16T07:11:37.758Z,91.86
2022-09-16T07:14:04.939Z,91.52
2022-09-16T07:16:31.460Z,87.92
2022-09-16T07:19:01.167Z,87.10
2022-09-16T07:21:30.102Z,87.45
2022-09-16T07:24:02.509Z,87.13
2022-09-16T07:26:31.197Z,85.88
2022-09-16T07:29:00.706Z,86.84
2022-09-16T07:31:29.428Z,86.40
2022-09-16T07:34:02.847Z,83.81
2022-09-16T07:36:33.653Z,84.65
2022-09-16T07:39:00.572Z,85.29
2022-09-16T07:41:29.797Z,83.89
2022-09-16T07:43:59.061Z,84.45
2022-09-16T07:46:27.761Z,81.95
2022-09-16T07:48:55.145Z,82.09
2022-09-16T07:51:24.066Z,81.01
2022-09-16T07:53:59.458Z,79.29
2022-09-16T07:56:28.954Z,80.12
2022-09-16T07:58:56.751Z,81.49
2022-09-16T08:01:24.060Z,82.37
2022-09-16T08:03:51.140Z,81.92
2022-09-16T08:06:20.755Z,79.54
2022-09-16T08:08:48.192Z,80.63
2022-09-16T08:11:15.297Z,77.21
2022-09-16T08:13:43.112Z,77.59
2022-09-16T08:16:15.057Z,77.76
2022-09-16T08:18:42.604Z,78.61
2022-09-16T08:21:23.538Z,78.33
2022-09-16T08:23:50.552Z,78.98
2022-09-16T08:26:18.119Z,78.91
2022-09-16T08:29:07.352Z,79.34
2022-09-16T08:31:33.249Z,76.41
2022-09-16T08:33:59.894Z,76.42
2022-09-16T08:36:26.412Z,74.52
2022-09-16T08:38:56.133Z,73.59
2022-09-16T08:41:44.216Z,71.77
2022-09-16T08:44:35.347Z,71.64
2022-09-16T08:47:06.320Z,73.10
2022-09-16T08:49:35.545Z,74.85
2022-09-16T08:52:10.639Z,74.53
2022-09-16T08:54:47.866Z,74.42
2022-09-16T08:57:21.409Z,71.25
2022-09-16T08:59:59.513Z,70.66
2022-09-16T09:05:43.390Z,70.42
2022-09-16T09:08:19.326Z,72.19
2022-09-16T09:10:52.158Z,72.09
2022-09-16T09:13:22.198Z,69.56
2022-09-16T09:16:00.010Z,67.94
2022-09-16T09:19:03.120Z,68.87
2022-09-16T09:21:55.499Z,69.08
2022-09-16T09:24:28.081Z,67.66
2022-09-16T09:27:01.250Z,66.84
2022-09-16T09:30:00.872Z,66.20
2022-09-16T09:32:38.237Z,66.79
2022-09-16T09:35:49.723Z,64.98
2022-09-16T09:38:37.539Z,67.09
2022-09-16T09:41:32.684Z,69.65
2022-09-16T09:44:26.145Z,73.06
2022-09-16T09:46:58.004Z,72.13
2022-09-16T09:49:51.173Z,71.69
2022-09-16T09:52:23.289Z,71.13
2022-09-16T09:54:51.533Z,68.48
2022-09-16T09:57:31.612Z,67.73
2022-09-16T10:00:11.626Z,69.13
2022-09-16T10:02:46.238Z,68.93
2022-09-16T10:05:23.715Z,65.82
2022-09-16T10:07:57.329Z,62.71
2022-09-16T10:10:26.672Z,60.89
2022-09-16T10:12:54.305Z,58.13
2022-09-16T10:15:38.531Z,58.75
2022-09-16T10:18:25.105Z,59.11
2022-09-16T10:21:11.465Z,59.32
2022-09-16T10:23:39.158Z,59.74
2022-09-16T10:26:27.577Z,58.28
2022-09-16T10:29:03.442Z,53.29
2022-09-16T10:31:35.636Z,45.85
2022-09-16T10:34:04.515Z,41.99
2022-09-16T10:36:34.609Z,38.38
2022-09-16T10:39:05.263Z,37.50
2022-09-16T10:41:42.326Z,39.77
2022-09-16T10:44:28.285Z,40.55
2022-09-16T10:47:01.409Z,34.72
2022-09-16T10:49:38.760Z,32.59
2022-09-16T10:52:17.516Z,30.84
2022-09-16T10:54:44.891Z,30.21
2022-09-16T10:57:31.177Z,30.93
2022-09-16T11:00:14.536Z,31.17
2022-09-16T11:03:28.269Z,27.98
2022-09-16T11:06:06.933Z,29.16
2022-09-16T11:08:51.668Z,31.16
2022-09-16T11:11:37.641Z,30.46
2022-09-16T11:14:25.665Z,28.46
2022-09-16T11:17:15.288Z,25.84
2022-09-16T11:20:04.769Z,28.09
2022-09-16T11:22:54.096Z,31.01
2022-09-16T11:25:41.509Z,36.73
2022-09-16T11:28:32.887Z,41.60
2022-09-16T11:31:34.938Z,46.84
2022-09-16T11:34:16.592Z,51.55
2022-09-16T11:36:49.085Z,54.22
2022-09-16T11:39:49.529Z,56.58
2022-09-16T11:42:34.369Z,58.24
2022-09-16T11:45:19.137Z,56.85
2022-09-16T11:47:56.874Z,55.81
2022-09-16T11:50:49.421Z,53.60
2022-09-16T11:53:35.006Z,50.75
2022-09-16T11:56:10.821Z,50.52
2022-09-16T11:58:49.018Z,43.97
2022-09-16T12:01:46.710Z,35.99
2022-09-16T12:04:38.399Z,28.58
2022-09-16T12:07:17.963Z,27.74
2022-09-16T12:09:57.583Z,25.73
2022-09-16T12:12:29.540Z,26.15
2022-09-16T12:15:05.967Z,29.18
2022-09-16T12:17:37.078Z,31.71
2022-09-16T12:20:14.465Z,34.31
2022-09-16T12:23:30.219Z,33.07
2022-09-16T12:26:07.032Z,36.50
2022-09-16T12:28:55.354Z,39.01
2022-09-16T12:31:36.491Z,44.35
2022-09-16T12:34:27.670Z,50.55
2022-09-16T12:37:22.640Z,55.09
2022-09-16T12:39:50.308Z,58.49
2022-09-16T12:42:47.569Z,59.57
2022-09-16T12:45:51.095Z,57.15
2022-09-16T12:48:38.900Z,49.08
2022-09-16T12:51:30.354Z,43.00
2022-09-16T12:54:20.441Z,37.55
2022-09-16T12:57:15.852Z,32.89
2022-09-16T12:59:52.403Z,34.07
2022-09-16T13:02:22.660Z,36.61
2022-09-16T13:04:53.173Z,42.43
2022-09-16T13:07:27.364Z,45.21
2022-09-16T13:10:01.670Z,45.25
2022-09-16T13:12:40.977Z,39.82
2022-09-16T13:15:27.162Z,41.00
2022-09-16T13:17:54.295Z,38.12
2022-09-16T13:20:33.499Z,38.58
2022-09-16T13:23:07.343Z,42.27
2022-09-16T13:25:44.799Z,44.22
2022-09-16T13:28:39.123Z,47.97
2022-09-16T13:31:11.679Z,52.28
2022-09-16T13:33:45.278Z,52.77
2022-09-16T13:36:31.876Z,54.31
2022-09-16T13:39:01.886Z,56.11
2022-09-16T13:41:48.702Z,58.45
2022-09-16T13:44:33.509Z,60.10
2022-09-16T13:47:09.222Z,61.68
2022-09-16T13:49:47.568Z,63.04
2022-09-16T13:52:21.131Z,64.78
2022-09-16T13:55:10.101Z,66.76
2022-09-16T13:58:10.831Z,68.60
2022-09-16T14:00:49.671Z,71.68
2022-09-16T14:03:29.218Z,73.45
2022-09-16T14:05:58.635Z,76.58
2022-09-16T14:08:53.207Z,78.96
2022-09-16T14:11:31.670Z,82.75
2022-09-16T14:14:06.239Z,85.95
2022-09-16T14:16:34.794Z,90.13
2022-09-16T14:19:19.942Z,91.25
2022-09-16T14:21:46.797Z,97.11
2022-09-16T14:24:19.452Z,100.00
2022-09-16T14:26:53.463Z,100.00
2022-09-16T14:29:20.775Z,100.00
2022-09-16T14:31:48.240Z,100.00
2022-09-16T14:34:36.266Z,100.00
2022-09-16T14:37:05.410Z,100.00
2022-09-16T14:39:32.720Z,100.00
2022-09-16T14:42:07.283Z,100.00
2022-09-16T14:44:45.463Z,100.00
2022-09-16T14:47:29.458Z,100.00
2022-09-16T14:50:07.701Z,100.00
2022-09-16T14:52:35.797Z,100.00
2022-09-16T14:55:02.235Z,100.00
2022-09-16T14:57:30.716Z,100.00
2022-09-16T14:59:59.238Z,100.00
2022-09-16T15:02:34.248Z,100.00
2022-09-16T15:05:33.168Z,100.00
2022-09-16T15:08:14.208Z,100.00
2022-09-16T15:12:46.584Z,100.00
2022-09-16T15:13:36.511Z,100.00
2022-09-16T15:16:16.110Z,100.00
2022-09-16T15:18:52.485Z,100.00
2022-09-16T15:21:26.476Z,100.00
2022-09-16T15:23:56.589Z,100.00
2022-09-16T15:26:26.413Z,100.00
2022-09-16T15:31:46.600Z,100.00
2022-09-16T15:34:19.125Z,100.00
2022-09-16T15:36:47.522Z,100.00
2022-09-16T15:39:31.835Z,100.00
2022-09-16T15:42:18.077Z,100.00
2022-09-16T15:44:48.971Z,100.00
2022-09-16T15:47:33.991Z,100.00
2022-09-16T15:50:05.305Z,100.00
2022-09-16T15:52:34.899Z,100.00
2022-09-16T15:55:06.027Z,100.00
2022-09-16T15:57:38.148Z,100.00
2022-09-16T16:00:15.811Z,100.00
2022-09-16T16:02:50.489Z,100.00
2022-09-16T16:05:21.339Z,100.00
2022-09-16T16:07:51.605Z,100.00
2022-09-16T16:10:32.907Z,100.00
2022-09-16T16:13:01.187Z,100.00
2022-09-16T16:15:36.451Z,100.00
2022-09-16T16:18:05.670Z,100.00
2022-09-16T16:20:34.108Z,100.00
2022-09-16T16:23:01.629Z,100.00
2022-09-16T16:25:28.885Z,100.00
2022-09-16T16:27:55.517Z,100.00
2022-09-16T16:30:22.011Z,100.00
2022-09-16T16:32:48.810Z,100.00
2022-09-16T16:35:15.328Z,100.00
2022-09-16T16:37:46.457Z,100.00
2022-09-16T16:40:15.026Z,100.00
2022-09-16T16:42:43.301Z,100.00
2022-09-16T16:45:12.072Z,100.00
2022-09-16T16:47:38.395Z,100.00
2022-09-16T16:50:05.128Z,100.00
2022-09-16T16:52:31.476Z,100.00
2022-09-16T16:54:57.958Z,100.00
2022-09-16T16:57:24.390Z,100.00
2022-09-16T16:59:51.866Z,100.00
2022-09-16T17:02:18.295Z,100.00
2022-09-16T17:04:44.644Z,100.00
2022-09-16T17:07:27.901Z,100.00
2022-09-16T17:09:55.788Z,100.00
2022-09-16T17:12:22.260Z,100.00
2022-09-16T17:14:48.658Z,100.00
2022-09-16T17:17:15.293Z,100.00
2022-09-16T17:19:41.651Z,100.00
2022-09-16T17:22:08.095Z,100.00
2022-09-16T17:24:34.814Z,100.00
2022-09-16T17:27:01.920Z,100.00
2022-09-16T17:29:28.348Z,100.00
2022-09-16T17:31:57.017Z,100.00
2022-09-16T17:34:23.717Z,100.00
2022-09-16T17:36:50.192Z,100.00
2022-09-16T17:39:18.813Z,100.00
2022-09-16T17:41:47.442Z,100.00
2022-09-16T17:44:14.486Z,100.00
2022-09-16T17:46:42.662Z,100.00
2022-09-16T17:49:23.766Z,100.00
2022-09-16T17:51:51.824Z,100.00
2022-09-16T17:54:18.545Z,100.00
2022-09-16T17:56:45.228Z,100.00
2022-09-16T17:59:13.168Z,100.00
2022-09-16T18:01:39.913Z,100.00
2022-09-16T18:04:07.019Z,100.00
2022-09-16T18:06:39.910Z,100.00
2022-09-16T18:09:09.453Z,100.00
2022-09-16T18:11:36.986Z,100.00
2022-09-16T18:14:06.308Z,100.00
2022-09-16T18:16:32.895Z,100.00
2022-09-16T18:19:01.439Z,100.00
2022-09-16T18:21:30.121Z,100.00
2022-09-16T18:24:02.325Z,100.00
2022-09-16T18:26:29.651Z,100.00
2022-09-16T18:29:16.170Z,100.00
2022-09-16T18:31:45.257Z,100.00
2022-09-16T18:34:12.714Z,100.00
2022-09-16T18:36:39.736Z,100.00
2022-09-16T18:39:10.028Z,100.00
2022-09-16T18:41:38.564Z,100.00
2022-09-16T18:44:10.351Z,100.00
2022-09-16T18:46:37.802Z,100.00
2022-09-16T18:49:05.838Z,100.00
2022-09-16T18:51:36.894Z,100.00
2022-09-16T18:54:10.576Z,100.00
2022-09-16T18:56:38.816Z,100.00
2022-09-16T18:59:26.139Z,100.00
2022-09-16T19:01:54.699Z,100.00
2022-09-16T19:04:23.598Z,100.00
2022-09-16T19:06:53.143Z,100.00
2022-09-16T19:09:21.983Z,100.00
2022-09-16T19:11:49.458Z,100.00
2022-09-16T19:14:16.306Z,100.00
2022-09-16T19:16:44.580Z,100.00
2022-09-16T19:19:13.848Z,100.00
2022-09-16T19:21:41.972Z,100.00
2022-09-16T19:24:13.921Z,100.00
2022-09-16T19:26:42.171Z,100.00
2022-09-16T19:29:09.763Z,100.00
2022-09-16T19:31:39.214Z,100.00
2022-09-16T19:34:06.700Z,100.00
2022-09-16T19:36:34.612Z,100.00
2022-09-16T19:39:01.702Z,100.00
2022-09-16T19:41:34.755Z,100.00
2022-09-16T19:44:04.392Z,100.00
2022-09-16T19:46:34.649Z,100.00
2022-09-16T19:49:01.389Z,100.00
2022-09-16T19:51:28.312Z,100.00
2022-09-16T19:53:55.062Z,100.00
2022-09-16T19:56:27.009Z,100.00
2022-09-16T19:58:54.525Z,100.00
2022-09-16T20:01:27.107Z,100.00
2022-09-16T20:03:54.466Z,100.00
2022-09-16T20:06:41.247Z,100.00
2022-09-16T20:09:12.692Z,100.00
2022-09-16T20:11:41.965Z,100.00
2022-09-16T20:14:14.346Z,100.00
2022-09-16T20:16:40.958Z,100.00
2022-09-16T20:19:12.533Z,100.00
2022-09-16T20:21:39.299Z,100.00
2022-09-16T20:24:07.846Z,100.00
2022-09-16T20:26:35.523Z,100.00
2022-09-16T20:29:02.662Z,100.00
2022-09-16T20:31:32.499Z,100.00
2022-09-16T20:33:59.730Z,100.00
2022-09-16T20:36:29.752Z,100.00
2022-09-16T20:38:56.851Z,100.00
2022-09-16T20:41:24.979Z,100.00
2022-09-16T20:43:52.749Z,100.00
2022-09-16T20:46:22.147Z,100.00
2022-09-16T20:48:49.106Z,100.00
2022-09-16T20:51:18.272Z,100.00
2022-09-16T20:53:53.943Z,100.00
2022-09-16T20:56:21.165Z,100.00
2022-09-16T20:58:48.148Z,100.00
2022-09-16T21:01:19.137Z,100.00
2022-09-16T21:03:49.886Z,100.00
2022-09-16T21:06:16.248Z,100.00
2022-09-16T21:08:43.720Z,100.00
2022-09-16T21:11:13.177Z,100.00
2022-09-16T21:13:41.316Z,100.00
2022-09-16T21:16:09.529Z,100.00
2022-09-16T21:18:36.002Z,100.00
2022-09-16T21:21:07.939Z,100.00
2022-09-16T21:23:35.110Z,100.00
2022-09-16T21:26:04.154Z,100.00
2022-09-16T21:28:31.689Z,100.00
2022-09-16T21:31:02.329Z,100.00
2022-09-16T21:33:30.739Z,100.00
2022-09-16T21:35:57.092Z,100.00
2022-09-16T21:38:24.562Z,100.00
2022-09-16T21:40:55.974Z,100.00
2022-09-16T21:43:26.404Z,100.00
2022-09-16T21:45:53.801Z,100.00
2022-09-16T21:48:20.898Z,100.00
2022-09-16T21:50:48.388Z,100.00
2022-09-16T21:53:15.285Z,100.00
2022-09-16T21:55:41.963Z,100.00
2022-09-16T21:58:08.869Z,100.00
2022-09-16T22:00:36.506Z,100.00
2022-09-16T22:03:02.938Z,100.00
2022-09-16T22:05:30.373Z,100.00
2022-09-16T22:07:57.048Z,100.00
2022-09-16T22:10:23.460Z,100.00
2022-09-16T22:12:49.898Z,100.00
2022-09-16T22:15:16.746Z,100.00
2022-09-16T22:17:43.442Z,100.00
2022-09-16T22:20:11.620Z,100.00
2022-09-16T22:22:39.117Z,100.00
2022-09-16T22:25:05.639Z,100.00
2022-09-16T22:27:33.008Z,100.00
2022-09-16T22:29:59.542Z,100.00
2022-09-16T22:32:27.009Z,100.00
2022-09-16T22:34:53.527Z,100.00
2022-09-16T22:37:19.959Z,100.00
2022-09-16T22:39:46.332Z,100.00
2022-09-16T22:42:12.836Z,100.00
2022-09-16T22:44:39.179Z,100.00
2022-09-16T22:47:05.808Z,100.00
2022-09-16T22:49:32.137Z,100.00
2022-09-16T22:51:58.586Z,100.00
2022-09-16T22:54:24.971Z,100.00
2022-09-16T22:56:51.470Z,100.00
2022-09-16T22:59:20.081Z,100.00
2022-09-16T23:01:47.248Z,100.00
2022-09-16T23:04:13.715Z,100.00
2022-09-16T23:06:41.170Z,100.00
2022-09-16T23:09:08.784Z,100.00
2022-09-16T23:11:36.033Z,100.00
2022-09-16T23:14:04.034Z,100.00
2022-09-16T23:16:35.784Z,100.00
2022-09-16T23:19:05.332Z,100.00
2022-09-16T23:21:32.417Z,100.00
2022-09-16T23:24:01.259Z,100.00
2022-09-16T23:26:33.457Z,100.00
2022-09-16T23:29:01.904Z,100.00
2022-09-16T23:31:31.077Z,100.00
2022-09-16T23:33:58.144Z,100.00
2022-09-16T23:36:26.029Z,100.00
2022-09-16T23:38:53.820Z,100.00
2022-09-16T23:41:22.992Z,100.00
2022-09-16T23:43:50.169Z,100.00
2022-09-16T23:46:19.845Z,100.00
2022-09-16T23:48:47.225Z,100.00
2022-09-16T23:51:13.971Z,100.00
2022-09-16T23:53:42.208Z,100.00
2022-09-16T23:56:11.515Z,100.00
2022-09-16T23:58:38.464Z,100.00
